createdAt,value
2022-08-20T00:02:16.711Z,22.37
2022-08-20T00:04:44.206Z,22.33
2022-08-20T00:07:11.659Z,22.32
2022-08-20T00:09:39.273Z,22.28
2022-08-20T00:12:07.360Z,22.24
2022-08-20T00:14:35.898Z,22.20
2022-08-20T00:17:04.813Z,22.14
2022-08-20T00:19:32.254Z,22.12
2022-08-20T00:21:59.434Z,22.06
2022-08-20T00:24:27.541Z,22.03
2022-08-20T00:26:54.525Z,22.02
2022-08-20T00:29:22.651Z,21.99
2022-08-20T00:31:50.803Z,21.98
2022-08-20T00:34:18.290Z,21.95
2022-08-20T00:36:45.344Z,21.95
2022-08-20T00:39:13.172Z,21.92
2022-08-20T00:41:40.200Z,21.93
2022-08-20T00:44:18.734Z,21.91
2022-08-20T00:46:46.980Z,21.85
2022-08-20T00:49:28.146Z,21.82
2022-08-20T00:52:06.203Z,21.79
2022-08-20T00:54:43.969Z,21.78
2022-08-20T00:57:59.972Z,21.76
2022-08-20T01:00:37.997Z,21.74
2022-08-20T01:03:09.976Z,21.71
2022-08-20T01:05:38.565Z,21.63
2022-08-20T01:08:06.731Z,21.61
2022-08-20T01:10:35.730Z,21.62
2022-08-20T01:13:11.083Z,21.56
2022-08-20T01:15:43.041Z,21.51
2022-08-20T01:18:16.118Z,21.46
2022-08-20T01:20:49.619Z,21.44
2022-08-20T01:23:34.923Z,21.41
2022-08-20T01:26:14.112Z,21.40
2022-08-20T01:28:44.921Z,21.40
2022-08-20T01:31:20.026Z,21.37
2022-08-20T01:33:48.289Z,21.39
2022-08-20T01:36:17.769Z,21.39
2022-08-20T01:38:51.932Z,21.32
2022-08-20T01:41:36.610Z,21.28
2022-08-20T01:44:05.796Z,21.22
2022-08-20T01:46:43.996Z,21.18
2022-08-20T01:49:28.265Z,21.14
2022-08-20T01:51:59.535Z,21.12
2022-08-20T01:54:28.462Z,21.09
2022-08-20T01:57:04.917Z,21.08
2022-08-20T01:59:32.503Z,21.06
2022-08-20T02:02:00.313Z,21.05
2022-08-20T02:04:27.475Z,21.02
2022-08-20T02:06:58.682Z,21.01
2022-08-20T02:09:28.249Z,21.01
2022-08-20T02:11:56.650Z,20.98
2022-08-20T02:14:24.790Z,20.93
2022-08-20T02:16:55.051Z,20.92
2022-08-20T02:19:48.181Z,20.89
2022-08-20T02:22:21.030Z,20.84
2022-08-20T02:24:48.890Z,20.82
2022-08-20T02:27:16.091Z,20.79
2022-08-20T02:29:50.326Z,20.77
2022-08-20T02:32:32.238Z,20.74
2022-08-20T02:35:04.880Z,20.73
2022-08-20T02:37:32.344Z,20.71
2022-08-20T02:39:59.802Z,20.66
2022-08-20T02:42:27.120Z,20.62
2022-08-20T02:44:55.027Z,20.61
2022-08-20T02:47:22.308Z,20.57
2022-08-20T02:49:49.753Z,20.57
2022-08-20T02:52:17.307Z,20.55
2022-08-20T02:54:44.723Z,20.57
2022-08-20T02:57:17.129Z,20.52
2022-08-20T02:59:45.313Z,20.51
2022-08-20T03:02:12.935Z,20.51
2022-08-20T03:04:43.055Z,20.50
2022-08-20T03:07:11.609Z,20.52
2022-08-20T03:09:39.558Z,20.49
2022-08-20T03:12:08.193Z,20.48
2022-08-20T03:14:36.429Z,20.45
2022-08-20T03:17:04.643Z,20.41
2022-08-20T03:19:31.806Z,20.40
2022-08-20T03:21:59.251Z,20.41
2022-08-20T03:24:26.250Z,20.40
2022-08-20T03:26:53.886Z,20.43
2022-08-20T03:29:21.287Z,20.45
2022-08-20T03:31:49.151Z,20.52
2022-08-20T03:34:16.214Z,20.59
2022-08-20T03:36:43.647Z,20.63
2022-08-20T03:39:13.327Z,20.71
2022-08-20T03:41:40.642Z,20.78
2022-08-20T03:44:07.929Z,20.87
2022-08-20T03:46:35.202Z,20.99
2022-08-20T03:49:02.456Z,21.13
2022-08-20T03:51:30.853Z,21.29
2022-08-20T03:53:58.634Z,21.43
2022-08-20T03:56:29.482Z,21.53
2022-08-20T03:58:57.146Z,21.67
2022-08-20T04:01:37.165Z,21.83
2022-08-20T04:04:12.861Z,21.97
2022-08-20T04:06:40.675Z,22.12
2022-08-20T04:09:11.668Z,22.30
2022-08-20T04:11:41.210Z,22.44
2022-08-20T04:14:11.588Z,22.53
2022-08-20T04:16:43.981Z,22.55
2022-08-20T04:19:16.949Z,22.52
2022-08-20T04:21:44.414Z,22.65
2022-08-20T04:24:27.549Z,22.94
2022-08-20T04:26:59.748Z,23.27
2022-08-20T04:29:32.619Z,23.63
2022-08-20T04:32:03.368Z,23.90
2022-08-20T04:34:34.055Z,23.90
2022-08-20T04:37:01.398Z,23.92
2022-08-20T04:39:28.549Z,23.83
2022-08-20T04:41:55.539Z,23.83
2022-08-20T04:44:23.130Z,23.99
2022-08-20T04:46:51.425Z,24.12
2022-08-20T04:49:18.374Z,24.38
2022-08-20T04:51:45.679Z,24.67
2022-08-20T04:54:14.558Z,25.02
2022-08-20T04:56:41.827Z,25.07
2022-08-20T04:59:09.165Z,24.99
2022-08-20T05:01:36.295Z,25.05
2022-08-20T05:04:03.673Z,25.01
2022-08-20T05:06:35.663Z,25.07
2022-08-20T05:09:03.097Z,25.25
2022-08-20T05:11:35.644Z,25.46
2022-08-20T05:14:07.939Z,25.54
2022-08-20T05:16:41.353Z,25.50
2022-08-20T05:19:14.351Z,25.66
2022-08-20T05:21:44.233Z,25.79
2022-08-20T05:24:12.376Z,25.40
2022-08-20T05:26:39.698Z,25.17
2022-08-20T05:29:07.707Z,24.95
2022-08-20T05:31:35.557Z,24.80
2022-08-20T05:34:10.831Z,24.67
2022-08-20T05:36:49.062Z,24.49
2022-08-20T05:39:18.633Z,24.19
2022-08-20T05:41:48.525Z,24.04
2022-08-20T05:44:19.998Z,23.92
2022-08-20T05:46:48.446Z,23.83
2022-08-20T05:49:24.459Z,23.72
2022-08-20T05:51:52.951Z,23.70
2022-08-20T05:54:20.394Z,23.71
2022-08-20T05:56:49.728Z,23.70
2022-08-20T05:59:24.054Z,23.69
2022-08-20T06:01:52.669Z,23.65
2022-08-20T06:04:32.235Z,23.64
2022-08-20T06:07:05.904Z,23.66
2022-08-20T06:09:35.286Z,23.70
2022-08-20T06:12:06.391Z,23.75
2022-08-20T06:14:37.481Z,23.82
2022-08-20T06:19:54.463Z,23.70
2022-08-20T06:22:25.164Z,23.66
2022-08-20T06:24:56.309Z,23.62
2022-08-20T06:27:23.973Z,23.63
2022-08-20T06:30:04.376Z,23.65
2022-08-20T06:32:33.797Z,23.68
2022-08-20T06:35:03.642Z,23.73
2022-08-20T06:37:32.455Z,23.77
2022-08-20T06:40:03.306Z,23.81
2022-08-20T06:42:30.453Z,23.87
2022-08-20T06:44:59.642Z,23.92
2022-08-20T06:47:30.192Z,23.96
2022-08-20T06:50:00.460Z,23.98
2022-08-20T06:52:35.018Z,23.97
2022-08-20T06:55:21.804Z,24.01
2022-08-20T06:57:57.395Z,24.08
2022-08-20T07:00:27.007Z,24.13
2022-08-20T07:02:54.377Z,24.16
2022-08-20T07:05:21.795Z,24.22
2022-08-20T07:07:51.379Z,24.35
2022-08-20T07:10:22.648Z,24.45
2022-08-20T07:12:51.126Z,24.46
2022-08-20T07:15:21.791Z,24.52
2022-08-20T07:18:01.138Z,24.60
2022-08-20T07:20:31.755Z,24.70
2022-08-20T07:23:00.736Z,24.75
2022-08-20T07:25:30.692Z,24.72
2022-08-20T07:28:07.178Z,24.78
2022-08-20T07:30:58.436Z,24.80
2022-08-20T07:33:41.490Z,24.87
2022-08-20T07:36:09.493Z,24.96
2022-08-20T07:38:37.626Z,25.05
2022-08-20T07:41:13.340Z,25.18
2022-08-20T07:43:41.912Z,25.24
2022-08-20T07:46:10.240Z,25.30
2022-08-20T07:48:40.066Z,25.39
2022-08-20T07:51:09.015Z,25.43
2022-08-20T07:53:39.095Z,25.50
2022-08-20T07:56:13.578Z,25.60
2022-08-20T07:58:50.824Z,25.75
2022-08-20T08:01:21.102Z,25.79
2022-08-20T08:03:50.921Z,25.87
2022-08-20T08:06:29.647Z,26.02
2022-08-20T08:09:05.142Z,26.14
2022-08-20T08:11:38.333Z,26.32
2022-08-20T08:14:11.261Z,26.38
2022-08-20T08:16:39.404Z,26.54
2022-08-20T08:19:12.429Z,26.62
2022-08-20T08:21:39.663Z,26.79
2022-08-20T08:24:23.355Z,27.53
2022-08-20T08:26:57.260Z,28.32
2022-08-20T08:29:44.117Z,29.08
2022-08-20T08:32:16.316Z,29.68
2022-08-20T08:34:50.854Z,30.05
2022-08-20T08:37:37.888Z,30.64
2022-08-20T08:40:07.206Z,30.73
2022-08-20T08:42:43.308Z,31.06
2022-08-20T08:45:18.708Z,31.53
2022-08-20T08:47:46.019Z,31.75
2022-08-20T08:50:53.673Z,32.05
2022-08-20T08:53:30.443Z,32.12
2022-08-20T08:55:57.804Z,32.50
2022-08-20T08:58:25.216Z,33.41
2022-08-20T09:00:57.634Z,33.55
2022-08-20T09:03:38.406Z,33.21
2022-08-20T09:06:06.428Z,33.39
2022-08-20T09:08:37.137Z,33.41
2022-08-20T09:11:07.160Z,33.46
2022-08-20T09:13:35.412Z,32.37
2022-08-20T09:16:02.451Z,32.58
2022-08-20T09:18:29.843Z,33.00
2022-08-20T09:20:57.387Z,33.34
2022-08-20T09:23:26.038Z,33.77
2022-08-20T09:25:53.248Z,33.96
2022-08-20T09:28:20.813Z,33.53
2022-08-20T09:30:48.495Z,33.05
2022-08-20T09:33:15.829Z,33.72
2022-08-20T09:35:44.922Z,34.54
2022-08-20T09:38:13.324Z,35.21
2022-08-20T09:40:40.651Z,35.24
2022-08-20T09:43:08.961Z,34.19
2022-08-20T09:45:36.873Z,33.48
2022-08-20T09:48:03.917Z,33.69
2022-08-20T09:50:34.047Z,34.25
2022-08-20T09:53:03.574Z,34.61
2022-08-20T09:55:42.872Z,35.24
2022-08-20T09:58:24.329Z,36.04
2022-08-20T10:00:52.008Z,35.85
2022-08-20T10:03:19.725Z,36.02
2022-08-20T10:05:46.914Z,34.76
2022-08-20T10:08:14.394Z,34.20
2022-08-20T10:10:41.879Z,35.26
2022-08-20T10:13:09.255Z,35.00
2022-08-20T10:15:41.952Z,34.57
2022-08-20T10:18:12.317Z,33.54
2022-08-20T10:20:40.379Z,32.60
2022-08-20T10:23:09.111Z,32.28
2022-08-20T10:25:37.243Z,31.92
2022-08-20T10:28:05.773Z,33.79
2022-08-20T10:30:34.036Z,33.70
2022-08-20T10:33:01.915Z,33.85
2022-08-20T10:35:30.100Z,32.91
2022-08-20T10:37:57.472Z,32.00
2022-08-20T10:40:28.514Z,31.43
2022-08-20T10:42:55.729Z,30.81
2022-08-20T10:45:25.536Z,30.14
2022-08-20T10:48:00.559Z,29.71
2022-08-20T10:50:30.363Z,29.76
2022-08-20T10:52:58.564Z,30.08
2022-08-20T10:55:26.158Z,30.21
2022-08-20T10:58:20.250Z,30.70
2022-08-20T11:00:54.392Z,30.68
2022-08-20T11:03:28.407Z,31.16
2022-08-20T11:05:56.506Z,30.88
2022-08-20T11:08:34.716Z,31.11
2022-08-20T11:11:12.034Z,31.16
2022-08-20T11:13:40.297Z,31.16
2022-08-20T11:16:07.797Z,31.10
2022-08-20T11:18:36.331Z,30.62
2022-08-20T11:21:16.607Z,30.02
2022-08-20T11:23:46.044Z,29.66
2022-08-20T11:26:25.226Z,29.63
2022-08-20T11:28:52.920Z,29.75
2022-08-20T11:31:20.995Z,29.63
2022-08-20T11:33:48.533Z,29.58
2022-08-20T11:36:15.843Z,29.57
2022-08-20T11:38:43.251Z,29.58
2022-08-20T11:41:11.147Z,29.72
2022-08-20T11:43:38.902Z,29.87
2022-08-20T11:46:06.529Z,29.91
2022-08-20T11:48:33.998Z,29.93
2022-08-20T11:51:01.683Z,30.02
2022-08-20T11:53:28.824Z,29.87
2022-08-20T11:55:58.255Z,29.64
2022-08-20T11:58:26.591Z,29.28
2022-08-20T12:00:54.736Z,29.03
2022-08-20T12:03:23.093Z,28.89
2022-08-20T12:05:50.879Z,28.86
2022-08-20T12:08:27.669Z,28.81
2022-08-20T12:11:01.170Z,28.61
2022-08-20T12:13:47.939Z,28.47
2022-08-20T12:16:18.023Z,28.32
2022-08-20T12:18:46.362Z,28.24
2022-08-20T12:21:20.353Z,28.25
2022-08-20T12:23:47.738Z,28.46
2022-08-20T12:26:16.772Z,28.68
2022-08-20T12:28:43.921Z,28.89
2022-08-20T12:31:25.852Z,29.06
2022-08-20T12:33:52.854Z,29.11
2022-08-20T12:36:21.405Z,29.13
2022-08-20T12:38:49.580Z,29.14
2022-08-20T12:41:16.574Z,29.19
2022-08-20T12:43:46.585Z,29.09
2022-08-20T12:46:13.836Z,29.07
2022-08-20T12:48:41.517Z,29.09
2022-08-20T12:51:25.566Z,29.06
2022-08-20T12:53:53.204Z,29.17
2022-08-20T12:56:20.704Z,29.26
2022-08-20T12:58:48.088Z,29.31
2022-08-20T13:01:17.184Z,29.21
2022-08-20T13:03:47.642Z,29.05
2022-08-20T13:06:14.655Z,29.04
2022-08-20T13:08:41.707Z,29.06
2022-08-20T13:11:08.995Z,29.23
2022-08-20T13:13:40.888Z,29.38
2022-08-20T13:16:08.415Z,29.32
2022-08-20T13:18:37.960Z,29.34
2022-08-20T13:21:04.989Z,29.38
2022-08-20T13:23:32.265Z,29.48
2022-08-20T13:25:59.628Z,29.48
2022-08-20T13:28:26.691Z,29.46
2022-08-20T13:30:53.822Z,29.44
2022-08-20T13:33:21.086Z,29.36
2022-08-20T13:35:48.113Z,29.32
2022-08-20T13:38:15.273Z,29.23
2022-08-20T13:40:43.339Z,29.21
2022-08-20T13:43:16.241Z,29.03
2022-08-20T13:45:44.251Z,28.99
2022-08-20T13:48:14.851Z,29.02
2022-08-20T13:50:42.934Z,29.05
2022-08-20T13:53:10.173Z,29.06
2022-08-20T13:55:39.160Z,29.04
2022-08-20T13:58:08.204Z,29.09
2022-08-20T14:00:36.613Z,29.09
2022-08-20T14:03:05.845Z,29.04
2022-08-20T14:05:33.522Z,28.96
2022-08-20T14:08:12.165Z,28.86
2022-08-20T14:10:39.783Z,28.85
2022-08-20T14:13:15.180Z,28.88
2022-08-20T14:15:43.507Z,28.90
2022-08-20T14:18:10.815Z,28.93
2022-08-20T14:20:38.733Z,28.88
2022-08-20T14:23:05.783Z,28.79
2022-08-20T14:25:33.994Z,28.71
2022-08-20T14:28:09.359Z,28.71
2022-08-20T14:30:36.612Z,28.71
2022-08-20T14:33:04.039Z,28.78
2022-08-20T14:35:31.694Z,28.78
2022-08-20T14:38:02.276Z,28.75
2022-08-20T14:40:37.034Z,28.69
2022-08-20T14:43:04.440Z,28.50
2022-08-20T14:45:34.606Z,28.52
2022-08-20T14:48:01.787Z,28.53
2022-08-20T14:50:34.364Z,28.56
2022-08-20T14:53:02.469Z,28.55
2022-08-20T14:55:33.061Z,28.55
2022-08-20T14:58:00.228Z,28.50
2022-08-20T15:00:35.832Z,28.42
2022-08-20T15:03:03.090Z,28.39
2022-08-20T15:05:30.222Z,28.37
2022-08-20T15:07:59.424Z,28.34
2022-08-20T15:10:33.136Z,28.36
2022-08-20T15:13:01.009Z,28.40
2022-08-20T15:15:28.587Z,28.36
2022-08-20T15:17:58.414Z,28.34
2022-08-20T15:20:27.861Z,28.32
2022-08-20T15:22:55.502Z,28.21
2022-08-20T15:25:36.482Z,28.23
2022-08-20T15:28:09.506Z,28.24
2022-08-20T15:30:41.326Z,28.30
2022-08-20T15:33:10.481Z,28.27
2022-08-20T15:35:38.455Z,28.25
2022-08-20T15:38:05.684Z,28.21
2022-08-20T15:40:33.488Z,28.20
2022-08-20T15:43:02.743Z,28.17
2022-08-20T15:45:31.743Z,28.17
2022-08-20T15:48:21.382Z,28.14
2022-08-20T15:50:48.351Z,28.10
2022-08-20T15:53:36.729Z,28.04
2022-08-20T15:56:11.396Z,27.99
2022-08-20T15:59:09.055Z,27.95
2022-08-20T16:02:14.760Z,27.91
2022-08-20T16:04:57.203Z,27.87
2022-08-20T16:07:50.627Z,27.80
2022-08-20T16:10:34.252Z,27.75
2022-08-20T16:13:06.401Z,27.70
2022-08-20T16:15:39.649Z,27.63
2022-08-20T16:18:23.230Z,27.59
2022-08-20T16:20:54.254Z,27.58
2022-08-20T16:23:31.617Z,27.54
2022-08-20T16:26:31.973Z,27.47
2022-08-20T16:29:25.059Z,27.41
2022-08-20T16:32:05.946Z,27.35
2022-08-20T16:35:06.857Z,27.27
2022-08-20T16:38:12.817Z,27.22
2022-08-20T16:40:51.273Z,27.15
2022-08-20T16:43:24.183Z,27.09
2022-08-20T16:45:57.836Z,27.02
2022-08-20T16:48:33.949Z,26.99
2022-08-20T16:51:08.783Z,26.90
2022-08-20T16:53:36.144Z,26.76
2022-08-20T16:56:03.852Z,26.67
2022-08-20T16:58:31.264Z,26.52
2022-08-20T17:01:25.663Z,26.41
2022-08-20T17:03:52.768Z,26.27
2022-08-20T17:06:32.247Z,26.13
2022-08-20T17:09:02.315Z,26.01
2022-08-20T17:11:33.110Z,25.92
2022-08-20T17:14:08.332Z,25.87
2022-08-20T17:16:47.081Z,25.74
2022-08-20T17:19:31.640Z,25.61
2022-08-20T17:22:11.712Z,25.43
2022-08-20T17:24:40.297Z,25.34
2022-08-20T17:27:15.443Z,25.22
2022-08-20T17:29:53.406Z,25.12
2022-08-20T17:32:29.231Z,25.01
2022-08-20T17:35:00.406Z,24.93
2022-08-20T17:37:35.360Z,24.85
2022-08-20T17:40:18.411Z,24.80
2022-08-20T17:42:59.317Z,24.76
2022-08-20T17:45:32.271Z,24.73
2022-08-20T17:48:00.865Z,24.65
2022-08-20T17:50:32.400Z,24.54
2022-08-20T17:53:23.852Z,24.40
2022-08-20T17:55:58.452Z,24.24
2022-08-20T17:58:31.986Z,24.15
2022-08-20T18:00:59.934Z,24.07
2022-08-20T18:03:27.409Z,23.99
2022-08-20T18:06:02.335Z,23.95
2022-08-20T18:08:38.828Z,23.90
2022-08-20T18:11:14.943Z,23.82
2022-08-20T18:13:55.865Z,23.74
2022-08-20T18:16:30.646Z,23.66
2022-08-20T18:19:15.086Z,23.58
2022-08-20T18:21:57.402Z,23.51
2022-08-20T18:24:33.609Z,23.48
2022-08-20T18:27:08.917Z,23.42
2022-08-20T18:29:41.764Z,23.44
2022-08-20T18:32:34.709Z,23.48
2022-08-20T18:35:32.079Z,23.49
2022-08-20T18:38:24.786Z,23.44
2022-08-20T18:40:55.088Z,23.40
2022-08-20T18:43:30.845Z,23.36
2022-08-20T18:46:13.762Z,23.39
2022-08-20T18:48:52.160Z,23.39
2022-08-20T18:51:24.080Z,23.37
2022-08-20T18:53:52.021Z,23.36
2022-08-20T18:56:34.991Z,23.36
2022-08-20T18:59:09.311Z,23.32
2022-08-20T19:01:38.809Z,23.30
2022-08-20T19:04:34.072Z,23.29
2022-08-20T19:07:05.578Z,23.26
2022-08-20T19:10:00.095Z,23.25
2022-08-20T19:12:57.179Z,23.25
2022-08-20T19:15:26.275Z,23.25
2022-08-20T19:18:09.473Z,23.22
2022-08-20T19:20:41.103Z,23.20
2022-08-20T19:23:20.945Z,23.16
2022-08-20T19:26:05.840Z,23.15
2022-08-20T19:28:55.520Z,23.14
2022-08-20T19:31:27.475Z,23.15
2022-08-20T19:34:21.945Z,23.15
2022-08-20T19:37:09.163Z,23.13
2022-08-20T19:39:48.560Z,23.08
2022-08-20T19:42:22.597Z,23.05
2022-08-20T19:44:57.580Z,23.00
2022-08-20T19:47:29.388Z,22.97
2022-08-20T19:50:17.902Z,22.88
2022-08-20T19:52:54.648Z,22.82
2022-08-20T19:55:26.234Z,22.74
2022-08-20T19:57:59.150Z,22.71
2022-08-20T20:00:30.356Z,22.66
2022-08-20T20:03:11.812Z,22.65
2022-08-20T20:05:51.089Z,22.67
2022-08-20T20:08:19.461Z,22.76
2022-08-20T20:10:54.115Z,22.87
2022-08-20T20:13:22.701Z,22.94
2022-08-20T20:15:54.453Z,22.95
2022-08-20T20:18:24.934Z,22.94
2022-08-20T20:21:09.186Z,22.93
2022-08-20T20:23:45.686Z,22.91
2022-08-20T20:26:19.982Z,22.87
2022-08-20T20:28:48.910Z,22.85
2022-08-20T20:31:29.464Z,22.85
2022-08-20T20:34:00.574Z,22.81
2022-08-20T20:36:38.422Z,22.81
2022-08-20T20:39:14.124Z,22.75
2022-08-20T20:41:54.474Z,22.65
2022-08-20T20:44:45.790Z,22.51
2022-08-20T20:47:48.407Z,22.34
2022-08-20T20:50:31.216Z,22.20
2022-08-20T20:53:01.727Z,22.10
2022-08-20T20:55:32.903Z,21.99
2022-08-20T20:58:02.775Z,21.92
2022-08-20T21:00:33.547Z,21.85
2022-08-20T21:03:03.873Z,21.81
2022-08-20T21:05:32.524Z,21.74
2022-08-20T21:08:02.563Z,21.64
2022-08-20T21:10:35.000Z,21.54
2022-08-20T21:13:05.341Z,21.46
2022-08-20T21:15:34.099Z,21.42
2022-08-20T21:18:03.234Z,21.41
2022-08-20T21:20:30.777Z,21.39
2022-08-20T21:23:00.109Z,21.38
2022-08-20T21:25:29.779Z,21.37
2022-08-20T21:27:57.322Z,21.35
2022-08-20T21:30:25.267Z,21.32
2022-08-20T21:32:52.605Z,21.32
2022-08-20T21:35:20.954Z,21.29
2022-08-20T21:37:48.128Z,21.22
2022-08-20T21:40:15.275Z,21.16
2022-08-20T21:42:45.526Z,21.12
2022-08-20T21:45:18.770Z,21.09
2022-08-20T21:47:49.684Z,21.03
2022-08-20T21:50:19.247Z,20.97
2022-08-20T21:52:52.498Z,20.93
2022-08-20T21:55:36.166Z,20.88
2022-08-20T21:58:06.172Z,20.84
2022-08-20T22:01:00.993Z,20.80
2022-08-20T22:03:33.978Z,20.73
2022-08-20T22:06:07.009Z,20.68
2022-08-20T22:08:34.738Z,20.63
2022-08-20T22:11:02.466Z,20.57
2022-08-20T22:13:32.895Z,20.53
2022-08-20T22:16:01.704Z,20.45
2022-08-20T22:18:28.972Z,20.39
2022-08-20T22:20:56.797Z,20.37
2022-08-20T22:23:24.216Z,20.35
2022-08-20T22:25:51.322Z,20.37
2022-08-20T22:28:19.193Z,20.40
2022-08-20T22:30:46.313Z,20.42
2022-08-20T22:33:20.154Z,20.46
2022-08-20T22:35:52.556Z,20.56
2022-08-20T22:38:20.673Z,20.66
2022-08-20T22:40:48.221Z,20.68
2022-08-20T22:43:16.103Z,20.70
2022-08-20T22:45:45.806Z,20.75
2022-08-20T22:48:16.447Z,20.75
2022-08-20T22:50:44.426Z,20.73
2022-08-20T22:53:13.060Z,20.65
2022-08-20T22:55:40.151Z,20.63
2022-08-20T22:58:07.791Z,20.57
2022-08-20T23:00:38.931Z,20.50
2022-08-20T23:03:07.210Z,20.46
2022-08-20T23:05:36.932Z,20.40
2022-08-20T23:08:05.858Z,20.35
2022-08-20T23:10:34.772Z,20.34
2022-08-20T23:13:02.545Z,20.29
2022-08-20T23:15:31.751Z,20.27
2022-08-20T23:18:06.521Z,20.23
2022-08-20T23:20:34.355Z,20.20
2022-08-20T23:23:01.362Z,20.12
2022-08-20T23:25:28.736Z,20.06
2022-08-20T23:28:04.079Z,20.00
2022-08-20T23:30:32.311Z,19.97
2022-08-20T23:33:01.521Z,19.94
2022-08-20T23:35:32.007Z,19.96
2022-08-20T23:38:00.873Z,19.95
2022-08-20T23:40:29.408Z,19.90
2022-08-20T23:42:57.020Z,19.89
2022-08-20T23:45:25.177Z,19.89
2022-08-20T23:47:52.937Z,19.85
2022-08-20T23:50:24.231Z,19.86
2022-08-20T23:52:52.918Z,19.90
2022-08-20T23:55:22.820Z,19.95
2022-08-20T23:57:50.937Z,19.95
